Time;durP1;ratioP1;P1;durP2;ratioP2;P2;SDS_P1;SDS_P2;PMS_P1;PMS_P2;Temp;Humidity;BMP_temperature;BMP_pressure;BME280_temperature;BME280_humidity;BME280_pressure;Samples;Min_cycle;Max_cycle;Signal;HPM_P1;HPM_P2
2021/11/13 00:00:11;;;;;;;2.53;2.33;;;21.70;54.90;;;;;;5049996;28;20450;-76
2021/11/13 00:02:37;;;;;;;2.90;2.60;;;21.70;54.90;;;;;;5051592;28;20446;-76
2021/11/13 00:05:04;;;;;;;2.73;2.50;;;21.70;54.90;;;;;;5049649;28;20486;-75
2021/11/13 00:07:30;;;;;;;3.73;2.30;;;21.70;55.00;;;;;;5032173;28;20411;-76
2021/11/13 00:09:55;;;;;;;2.90;2.60;;;21.70;54.90;;;;;;5050555;28;20402;-76
2021/11/13 00:12:22;;;;;;;3.17;2.50;;;21.70;55.00;;;;;;5049094;28;20309;-76
2021/11/13 00:14:47;;;;;;;3.33;3.03;;;21.70;55.00;;;;;;5048268;28;20176;-76
2021/11/13 00:17:14;;;;;;;2.50;2.30;;;21.60;54.90;;;;;;5030601;28;20423;-76
2021/11/13 00:19:40;;;;;;;2.83;2.50;;;21.70;55.00;;;;;;5030841;28;20570;-76
2021/11/13 00:22:07;;;;;;;2.93;2.63;;;21.70;55.00;;;;;;5014297;28;20491;-76
2021/11/13 00:24:32;;;;;;;3.10;2.40;;;21.60;54.90;;;;;;5010921;28;20420;-76
2021/11/13 00:26:59;;;;;;;2.90;2.60;;;21.60;54.90;;;;;;5033144;28;20534;-76
2021/11/13 00:29:27;;;;;;;2.43;2.23;;;21.60;54.90;;;;;;5010567;28;20192;-76
2021/11/13 00:31:54;;;;;;;3.20;2.90;;;21.60;54.90;;;;;;5010738;28;20919;-76
2021/11/13 00:34:20;;;;;;;2.70;2.40;;;21.60;54.90;;;;;;5026816;28;20450;-76
2021/11/13 00:36:45;;;;;;;3.10;2.40;;;21.60;54.90;;;;;;5028847;28;20423;-76
2021/11/13 00:39:12;;;;;;;3.10;2.40;;;21.60;54.90;;;;;;5014644;28;20199;-76
2021/11/13 00:41:56;;;;;;;2.83;2.53;;;21.60;54.90;;;;;;5014591;28;20176;-76
2021/11/13 00:44:22;;;;;;;3.00;2.63;;;21.70;55.00;;;;;;5032242;28;20483;-75
2021/11/13 00:46:48;;;;;;;3.17;2.60;;;21.60;54.90;;;;;;5032172;28;20407;-76
2021/11/13 00:49:17;;;;;;;4.07;3.07;;;21.60;54.90;;;;;;5039301;28;20593;-76
2021/11/13 00:51:45;;;;;;;2.63;2.27;;;21.60;54.90;;;;;;5051653;28;20190;-75
2021/11/13 00:54:11;;;;;;;3.93;2.70;;;21.60;55.50;;;;;;5036917;28;20418;-75
2021/11/13 01:00:33;;;;;;;3.83;2.77;;;21.60;54.90;;;;;;5033407;28;20356;-75
2021/11/13 01:02:59;;;;;;;3.60;3.07;;;21.60;55.00;;;;;;5017692;28;20462;-75
2021/11/13 01:05:25;;;;;;;3.57;3.00;;;21.60;55.10;;;;;;5033487;28;20415;-76
2021/11/13 01:11:14;;;;;;;2.50;2.30;;;21.60;55.00;;;;;;5046441;28;20183;-78
2021/11/13 01:13:40;;;;;;;3.60;2.53;;;21.50;55.00;;;;;;5059418;28;20466;-77
2021/11/13 01:19:28;;;;;;;3.00;2.53;;;21.60;55.10;;;;;;5058049;28;20146;-77
2021/11/13 01:21:54;;;;;;;3.27;2.97;;;21.50;55.00;;;;;;5058550;28;20426;-77
2021/11/13 01:24:19;;;;;;;2.87;2.47;;;21.50;55.00;;;;;;5058061;28;20402;-77
2021/11/13 01:26:46;;;;;;;2.80;2.37;;;21.50;55.00;;;;;;5058362;28;20175;-77
2021/11/13 01:29:12;;;;;;;3.13;2.40;;;21.50;55.00;;;;;;5058610;28;20168;-76
2021/11/13 01:31:38;;;;;;;2.20;2.00;;;21.50;55.00;;;;;;5057013;28;20418;-76
2021/11/13 01:34:03;;;;;;;2.43;2.10;;;21.50;55.00;;;;;;5057648;28;20168;-76
2021/11/13 01:36:29;;;;;;;2.77;2.57;;;21.60;55.10;;;;;;5058390;28;20174;-77
2021/11/13 01:38:55;;;;;;;3.20;2.83;;;21.60;55.00;;;;;;5058052;28;20224;-76
2021/11/13 01:41:20;;;;;;;4.20;2.00;;;21.60;55.00;;;;;;5057649;28;20198;-76
2021/11/13 01:43:47;;;;;;;2.53;2.00;;;21.60;55.00;;;;;;5041158;28;20198;-76
2021/11/13 01:46:13;;;;;;;2.83;2.53;;;21.60;55.00;;;;;;5040115;28;20171;-76
2021/11/13 01:48:39;;;;;;;3.03;2.73;;;21.60;55.00;;;;;;5039024;28;20449;-76
2021/11/13 01:51:18;;;;;;;3.03;2.73;;;21.60;55.00;;;;;;5040400;28;20247;-77
2021/11/13 01:53:44;;;;;;;2.70;2.27;;;21.60;55.00;;;;;;5040214;28;20426;-76
2021/11/13 01:56:16;;;;;;;2.67;2.47;;;21.50;55.00;;;;;;5057663;28;20414;-76
2021/11/13 01:58:43;;;;;;;2.50;2.30;;;21.60;55.00;;;;;;5053313;28;20424;-76
2021/11/13 02:01:08;;;;;;;3.20;2.93;;;21.60;55.00;;;;;;5052681;28;20478;-76
2021/11/13 02:03:34;;;;;;;2.57;2.27;;;21.50;55.00;;;;;;5017688;28;20459;-77
2021/11/13 02:06:00;;;;;;;2.97;2.50;;;21.60;55.00;;;;;;5020515;28;20191;-77
2021/11/13 02:08:25;;;;;;;2.67;2.47;;;21.60;55.00;;;;;;5034376;28;20173;-77
2021/11/13 02:14:13;;;;;;;3.30;2.63;;;21.60;55.00;;;;;;5033476;28;20171;-77
2021/11/13 02:16:39;;;;;;;3.93;2.77;;;21.50;55.00;;;;;;5033387;28;20435;-77
2021/11/13 02:22:27;;;;;;;2.70;2.40;;;21.50;55.00;;;;;;5033543;28;20280;-77
2021/11/13 02:28:19;;;;;;;2.30;1.97;;;21.50;55.00;;;;;;5037110;28;20152;-76
2021/11/13 02:30:48;;;;;;;3.27;2.50;;;21.50;55.00;;;;;;5048639;28;20457;-77
2021/11/13 02:33:15;;;;;;;2.30;2.10;;;21.50;55.00;;;;;;5037532;28;20486;-77
2021/11/13 02:35:44;;;;;;;3.03;2.47;;;21.50;55.00;;;;;;5023305;28;20498;-77
2021/11/13 02:38:19;;;;;;;3.20;2.40;;;21.50;55.00;;;;;;5038832;28;20526;-77
2021/11/13 02:40:48;;;;;;;3.60;2.70;;;21.50;55.00;;;;;;5031535;28;20441;-77
2021/11/13 02:43:15;;;;;;;2.50;2.30;;;21.50;55.00;;;;;;5057661;28;20449;-76
2021/11/13 02:45:42;;;;;;;2.60;2.40;;;21.50;55.00;;;;;;5055925;28;20418;-77
2021/11/13 02:48:08;;;;;;;2.83;2.30;;;21.50;55.00;;;;;;5054817;28;20426;-77
2021/11/13 02:50:36;;;;;;;2.43;2.23;;;21.60;55.10;;;;;;5055262;28;20417;-77
2021/11/13 02:53:03;;;;;;;2.70;2.50;;;21.50;55.00;;;;;;5037785;28;20449;-76
2021/11/13 02:55:30;;;;;;;3.70;2.50;;;21.50;55.00;;;;;;5053921;28;20418;-77
2021/11/13 02:57:57;;;;;;;2.40;2.00;;;21.50;55.00;;;;;;5053446;28;20440;-77
2021/11/13 03:00:26;;;;;;;2.87;2.27;;;21.50;55.00;;;;;;5052702;28;20446;-77
2021/11/13 03:02:51;;;;;;;2.97;2.40;;;21.50;55.00;;;;;;5040105;28;20470;-77
2021/11/13 03:05:35;;;;;;;5.00;3.10;;;21.50;55.00;;;;;;5052213;28;20430;-77
2021/11/13 03:08:03;;;;;;;2.20;2.00;;;21.60;55.10;;;;;;5035183;28;20190;-77
2021/11/13 03:10:32;;;;;;;3.13;2.50;;;21.50;55.00;;;;;;5027006;28;20415;-77
2021/11/13 03:12:58;;;;;;;2.57;2.37;;;21.50;55.00;;;;;;5053968;28;20772;-77
2021/11/13 03:15:25;;;;;;;2.30;1.97;;;21.50;55.00;;;;;;5037592;28;20440;-77
2021/11/13 03:17:52;;;;;;;2.50;2.10;;;21.50;55.00;;;;;;5054711;28;20626;-77
2021/11/13 03:20:26;;;;;;;3.40;2.50;;;21.50;55.00;;;;;;5045721;28;20435;-77
2021/11/13 03:22:53;;;;;;;3.27;2.70;;;21.50;55.10;;;;;;5030031;28;20445;-77
2021/11/13 03:25:23;;;;;;;2.40;2.20;;;21.50;55.10;;;;;;5037519;28;20421;-77
2021/11/13 03:27:52;;;;;;;2.80;2.60;;;21.50;55.10;;;;;;5034283;28;20410;-76
2021/11/13 03:30:22;;;;;;;3.90;2.43;;;21.50;55.10;;;;;;5017709;28;20482;-77
2021/11/13 03:32:50;;;;;;;2.53;2.33;;;21.50;55.10;;;;;;5029879;28;20433;-77
2021/11/13 03:35:19;;;;;;;3.23;2.23;;;21.50;55.10;;;;;;5055181;28;20397;-76
2021/11/13 03:37:45;;;;;;;2.50;2.30;;;21.50;55.10;;;;;;5037222;28;20418;-77
2021/11/13 03:40:11;;;;;;;2.37;2.10;;;21.50;55.70;;;;;;5036990;28;20437;-77
2021/11/13 03:42:39;;;;;;;2.37;2.10;;;21.50;55.10;;;;;;5037386;28;20517;-77
2021/11/13 03:45:14;;;;;;;2.57;2.37;;;21.50;55.10;;;;;;5053495;28;20424;-77
2021/11/13 03:47:39;;;;;;;3.13;2.30;;;21.50;55.10;;;;;;5054604;28;20413;-76
2021/11/13 03:50:06;;;;;;;2.90;2.50;;;21.40;55.10;;;;;;5054744;28;20409;-76
2021/11/13 03:52:32;;;;;;;2.63;2.27;;;21.40;55.10;;;;;;5036259;28;20184;-77
2021/11/13 03:54:58;;;;;;;2.43;2.23;;;21.40;55.10;;;;;;5036750;28;20438;-77
2021/11/13 03:57:23;;;;;;;2.40;2.03;;;21.40;55.10;;;;;;5053576;28;20209;-76
2021/11/13 03:59:49;;;;;;;3.00;2.80;;;21.40;55.10;;;;;;5036684;28;20187;-77
2021/11/13 04:02:16;;;;;;;2.33;1.93;;;21.40;55.10;;;;;;5035836;28;20267;-77
2021/11/13 04:04:42;;;;;;;2.80;2.30;;;21.40;55.10;;;;;;5049920;28;20408;-77
2021/11/13 04:07:13;;;;;;;3.17;2.80;;;21.40;55.10;;;;;;5047153;28;20414;-77
2021/11/13 04:09:39;;;;;;;2.57;1.97;;;21.40;55.10;;;;;;5051083;28;20413;-77
2021/11/13 04:12:06;;;;;;;2.20;1.93;;;21.40;55.10;;;;;;5032457;28;20439;-77
2021/11/13 04:14:42;;;;;;;2.80;2.43;;;21.40;55.10;;;;;;5016654;28;20419;-77
2021/11/13 04:17:08;;;;;;;3.30;2.53;;;21.40;55.10;;;;;;5033053;28;20399;-77
2021/11/13 04:19:34;;;;;;;2.87;2.57;;;21.40;55.10;;;;;;5050640;28;20414;-77
2021/11/13 04:22:00;;;;;;;2.53;2.33;;;21.40;55.10;;;;;;5051374;28;20485;-77
2021/11/13 04:24:26;;;;;;;3.23;2.37;;;21.40;55.10;;;;;;5051093;28;20409;-77
2021/11/13 04:27:01;;;;;;;2.70;2.10;;;21.40;55.10;;;;;;5034463;28;20168;-77
2021/11/13 04:29:27;;;;;;;2.30;2.10;;;21.40;55.10;;;;;;5034135;28;20174;-77
2021/11/13 04:31:53;;;;;;;2.73;2.00;;;21.40;55.10;;;;;;5034467;28;20458;-77
2021/11/13 04:34:21;;;;;;;2.60;2.40;;;21.40;55.10;;;;;;5051285;28;20171;-77
2021/11/13 04:36:53;;;;;;;2.50;2.30;;;21.40;55.10;;;;;;5033588;28;20172;-77
2021/11/13 04:39:21;;;;;;;2.23;2.00;;;21.40;55.10;;;;;;5050514;28;20993;-77
2021/11/13 04:41:46;;;;;;;2.40;2.20;;;21.40;55.10;;;;;;5032436;28;20446;-77
2021/11/13 04:47:34;;;;;;;3.47;2.20;;;21.40;55.10;;;;;;5048543;28;20183;-77
2021/11/13 04:50:02;;;;;;;3.37;2.60;;;21.40;55.20;;;;;;5051106;28;20418;-77
2021/11/13 04:52:28;;;;;;;2.90;2.20;;;21.40;55.20;;;;;;5050994;28;20176;-78
2021/11/13 04:54:57;;;;;;;2.03;1.83;;;21.40;55.20;;;;;;5033576;28;20429;-77
2021/11/13 04:57:23;;;;;;;3.30;2.00;;;21.40;55.20;;;;;;5033087;28;20191;-77
2021/11/13 04:59:49;;;;;;;2.40;2.20;;;21.40;55.20;;;;;;5033127;28;20431;-77
2021/11/13 05:02:14;;;;;;;2.73;2.37;;;21.40;55.20;;;;;;5034058;28;20192;-77
2021/11/13 05:04:40;;;;;;;3.30;2.40;;;21.40;55.20;;;;;;5050076;28;20203;-77
2021/11/13 05:07:06;;;;;;;2.77;2.33;;;21.30;55.10;;;;;;5050799;28;20175;-77
2021/11/13 05:09:31;;;;;;;2.47;2.27;;;21.30;55.10;;;;;;5047624;28;20171;-77
2021/11/13 05:12:16;;;;;;;2.10;1.90;;;21.40;55.20;;;;;;5032540;28;20195;-77
2021/11/13 05:14:41;;;;;;;2.70;2.50;;;21.40;55.10;;;;;;5030267;28;20183;-76
2021/11/13 05:17:07;;;;;;;2.20;2.00;;;21.30;55.10;;;;;;5026344;28;20410;-76
2021/11/13 05:19:33;;;;;;;2.30;2.10;;;21.30;55.10;;;;;;5022956;28;20168;-76
2021/11/13 05:21:59;;;;;;;2.73;2.27;;;21.30;55.10;;;;;;5044403;28;21104;-77
2021/11/13 05:24:24;;;;;;;2.47;2.23;;;21.30;55.10;;;;;;5047104;28;20172;-76
2021/11/13 05:26:50;;;;;;;2.07;1.83;;;21.30;55.00;;;;;;5031244;28;20444;-78
2021/11/13 05:29:16;;;;;;;2.30;2.03;;;21.40;55.10;;;;;;5048120;28;20203;-76
2021/11/13 05:31:41;;;;;;;2.73;1.90;;;21.30;55.00;;;;;;5049127;28;20188;-77
2021/11/13 05:34:07;;;;;;;2.33;2.13;;;21.30;55.00;;;;;;5030872;28;20171;-76
2021/11/13 05:36:33;;;;;;;2.30;2.10;;;21.40;55.10;;;;;;5048051;28;20172;-77
2021/11/13 05:38:58;;;;;;;1.80;1.70;;;21.40;55.10;;;;;;5048559;28;20172;-77
2021/11/13 05:41:24;;;;;;;2.40;2.20;;;21.40;55.00;;;;;;5048299;28;20179;-76
2021/11/13 05:43:50;;;;;;;2.73;2.37;;;21.40;55.00;;;;;;5030209;28;20207;-76
2021/11/13 05:46:16;;;;;;;2.40;2.20;;;21.40;55.00;;;;;;5048633;28;20176;-76
2021/11/13 05:48:42;;;;;;;3.00;2.70;;;21.40;55.00;;;;;;5048710;28;20175;-76
2021/11/13 05:51:08;;;;;;;2.43;2.10;;;21.40;55.00;;;;;;5047319;28;20414;-77
2021/11/13 05:53:33;;;;;;;3.13;2.33;;;21.40;55.00;;;;;;5048793;28;20414;-76
2021/11/13 05:55:59;;;;;;;2.67;2.27;;;21.40;55.00;;;;;;5047849;28;20164;-76
2021/11/13 05:58:25;;;;;;;2.40;2.20;;;21.40;54.90;;;;;;5029608;28;20187;-76
2021/11/13 06:00:51;;;;;;;1.87;1.73;;;21.40;54.90;;;;;;5013212;28;20778;-76
2021/11/13 06:03:17;;;;;;;2.23;1.90;;;21.40;54.90;;;;;;5052991;28;20237;-76
2021/11/13 06:09:05;;;;;;;2.60;2.40;;;21.50;55.00;;;;;;5053713;28;20174;-76
2021/11/13 06:11:31;;;;;;;2.47;2.27;;;21.40;54.90;;;;;;5057120;28;20418;-76
2021/11/13 06:13:57;;;;;;;2.23;2.03;;;21.40;54.90;;;;;;5056686;28;20410;-75
2021/11/13 06:16:22;;;;;;;3.10;2.17;;;21.40;54.90;;;;;;5039215;28;20478;-75
2021/11/13 06:18:48;;;;;;;2.67;2.10;;;21.40;54.90;;;;;;5039524;28;20250;-76
2021/11/13 06:21:15;;;;;;;2.20;2.00;;;21.40;54.90;;;;;;5039589;28;20179;-76
2021/11/13 06:23:45;;;;;;;2.30;1.93;;;21.50;55.00;;;;;;5057022;28;20183;-76
2021/11/13 06:26:12;;;;;;;1.83;1.70;;;21.50;55.00;;;;;;5056190;28;20390;-76
2021/11/13 06:28:38;;;;;;;1.97;1.53;;;21.50;55.00;;;;;;5056704;28;20413;-75
2021/11/13 06:31:03;;;;;;;2.50;2.30;;;21.50;55.00;;;;;;5039985;28;20414;-78
2021/11/13 06:33:29;;;;;;;2.97;2.20;;;21.50;54.90;;;;;;5038922;28;20267;-76
2021/11/13 06:35:55;;;;;;;2.03;1.83;;;21.50;54.90;;;;;;5056856;28;20176;-76
2021/11/13 06:38:21;;;;;;;2.40;2.10;;;21.50;54.90;;;;;;5038845;28;20188;-75
2021/11/13 06:40:47;;;;;;;2.17;1.97;;;21.50;54.90;;;;;;5019327;28;20235;-76
2021/11/13 06:43:12;;;;;;;2.60;1.97;;;21.50;54.90;;;;;;5036605;28;20508;-76
2021/11/13 06:45:38;;;;;;;2.60;2.20;;;21.50;54.90;;;;;;5056687;28;20156;-76
2021/11/13 06:48:04;;;;;;;2.73;2.30;;;21.50;54.90;;;;;;5056541;28;20172;-76
2021/11/13 06:50:30;;;;;;;1.97;1.77;;;21.50;54.90;;;;;;5039333;28;20239;-75
2021/11/13 06:52:56;;;;;;;2.23;2.00;;;21.50;54.90;;;;;;5056558;28;20490;-75
2021/11/13 06:55:22;;;;;;;2.63;2.00;;;21.50;54.90;;;;;;5056410;28;20182;-76
2021/11/13 06:57:47;;;;;;;2.40;2.03;;;21.50;54.90;;;;;;5056781;28;20210;-76
2021/11/13 07:00:17;;;;;;;2.73;1.90;;;21.50;54.80;;;;;;5019915;28;20172;-76
2021/11/13 07:02:43;;;;;;;2.10;1.90;;;21.50;54.80;;;;;;5038844;28;20255;-76
2021/11/13 07:05:10;;;;;;;2.63;2.10;;;21.50;54.80;;;;;;5038333;28;20413;-76
2021/11/13 07:07:36;;;;;;;2.33;2.10;;;21.60;54.80;;;;;;5038379;28;20460;-76
2021/11/13 07:10:06;;;;;;;2.27;2.07;;;21.60;54.80;;;;;;5034397;28;20404;-76
2021/11/13 07:12:32;;;;;;;3.60;2.13;;;21.60;54.80;;;;;;5047116;28;20202;-76
2021/11/13 07:14:58;;;;;;;3.37;2.77;;;21.60;54.80;;;;;;5056395;28;20429;-75
2021/11/13 07:17:26;;;;;;;5.20;2.70;;;21.60;54.70;;;;;;5057087;28;20446;-76
2021/11/13 07:19:52;;;;;;;3.37;2.70;;;21.60;54.70;;;;;;5039025;28;20187;-76
2021/11/13 07:22:18;;;;;;;2.67;2.00;;;21.60;54.70;;;;;;5053720;28;20458;-76
2021/11/13 07:24:50;;;;;;;3.77;3.13;;;21.60;54.70;;;;;;5056535;28;20179;-75
2021/11/13 07:27:16;;;;;;;2.80;2.47;;;21.60;54.70;;;;;;5038717;28;20513;-76
2021/11/13 07:29:58;;;;;;;2.80;2.47;;;21.60;54.70;;;;;;5035805;28;20419;-76
2021/11/13 07:32:25;;;;;;;3.67;2.37;;;21.60;54.70;;;;;;5037689;28;20194;-76
2021/11/13 07:34:51;;;;;;;2.80;2.30;;;21.60;54.70;;;;;;5053357;28;20423;-76
2021/11/13 07:37:17;;;;;;;3.43;2.93;;;21.60;54.80;;;;;;5036405;28;20465;-80
2021/11/13 07:39:43;;;;;;;2.93;2.23;;;21.60;54.70;;;;;;5054812;28;20179;-76
2021/11/13 07:42:09;;;;;;;3.33;2.47;;;21.60;54.70;;;;;;5035420;28;20247;-75
2021/11/13 07:44:35;;;;;;;3.10;2.20;;;21.60;54.60;;;;;;5055229;28;20402;-76
2021/11/13 07:47:00;;;;;;;3.40;2.90;;;21.60;54.60;;;;;;5054894;28;20163;-75
2021/11/13 07:49:26;;;;;;;3.27;2.40;;;21.60;54.60;;;;;;5054668;28;20436;-76
2021/11/13 07:51:53;;;;;;;2.23;1.97;;;21.60;54.60;;;;;;5054975;28;20430;-75
2021/11/13 07:54:20;;;;;;;3.33;2.20;;;21.60;54.60;;;;;;5055524;28;20191;-77
2021/11/13 07:56:46;;;;;;;3.40;2.67;;;21.60;54.60;;;;;;5037655;28;20435;-75
2021/11/13 07:59:13;;;;;;;4.37;2.63;;;21.60;54.60;;;;;;5035349;28;20412;-75
2021/11/13 08:01:39;;;;;;;3.50;2.93;;;21.60;54.60;;;;;;5054011;28;20402;-75
2021/11/13 08:04:05;;;;;;;3.20;2.47;;;21.60;54.70;;;;;;5054331;28;20446;-76
2021/11/13 08:06:31;;;;;;;3.40;2.30;;;21.60;54.70;;;;;;5054546;28;20414;-75
2021/11/13 08:08:56;;;;;;;2.60;1.90;;;21.60;54.70;;;;;;5037651;28;20199;-75
2021/11/13 08:11:22;;;;;;;2.83;2.30;;;21.60;54.70;;;;;;5054311;28;20652;-76
2021/11/13 08:13:48;;;;;;;4.70;3.03;;;21.60;54.70;;;;;;5036835;28;20199;-75
2021/11/13 08:16:14;;;;;;;4.30;2.73;;;21.60;54.70;;;;;;5037553;28;20168;-75
2021/11/13 08:18:40;;;;;;;3.90;2.50;;;21.60;54.70;;;;;;5036339;28;20490;-75
2021/11/13 08:21:05;;;;;;;2.40;2.00;;;21.60;54.70;;;;;;5033837;28;20187;-76
2021/11/13 08:23:32;;;;;;;5.17;2.80;;;21.60;54.70;;;;;;5051724;28;20210;-76
2021/11/13 08:25:59;;;;;;;3.30;2.20;;;21.60;54.70;;;;;;5034165;28;20259;-75
2021/11/13 08:28:25;;;;;;;5.07;2.90;;;21.60;54.70;;;;;;5036172;28;20411;-75
2021/11/13 08:30:52;;;;;;;3.87;2.60;;;21.60;54.70;;;;;;5036689;28;20807;-75
2021/11/13 08:33:18;;;;;;;3.17;2.67;;;21.60;54.70;;;;;;5054942;28;20425;-77
2021/11/13 08:35:46;;;;;;;3.10;2.37;;;21.60;54.70;;;;;;5054781;28;20406;-75
2021/11/13 08:38:20;;;;;;;4.43;2.23;;;21.60;54.70;;;;;;5055925;28;20462;-75
2021/11/13 08:40:48;;;;;;;4.30;3.00;;;21.60;54.70;;;;;;5055962;28;20394;-75
2021/11/13 08:43:14;;;;;;;2.60;2.40;;;21.60;54.70;;;;;;5039416;28;20453;-75
2021/11/13 08:45:43;;;;;;;3.57;2.73;;;21.60;54.70;;;;;;5037704;28;20450;-79
2021/11/13 08:48:09;;;;;;;3.17;2.37;;;21.60;54.70;;;;;;5034389;28;20446;-76
2021/11/13 08:50:35;;;;;;;3.27;2.60;;;21.60;54.70;;;;;;5039612;28;20502;-76
2021/11/13 08:53:03;;;;;;;2.57;2.10;;;21.60;54.70;;;;;;5055515;28;20188;-77
2021/11/13 08:55:32;;;;;;;4.73;2.10;;;21.60;54.70;;;;;;5055691;28;20398;-76
2021/11/13 08:57:59;;;;;;;6.67;2.87;;;21.60;54.60;;;;;;5039665;28;20451;-76
2021/11/13 09:00:31;;;;;;;3.20;2.40;;;21.60;54.60;;;;;;5043467;28;20418;-76
2021/11/13 09:03:00;;;;;;;3.40;2.40;;;21.60;54.60;;;;;;5037987;28;20460;-75
2021/11/13 09:05:26;;;;;;;3.00;2.13;;;21.60;54.60;;;;;;5037885;28;20502;-75
2021/11/13 09:07:54;;;;;;;4.47;2.53;;;21.60;54.60;;;;;;5051356;28;20563;-77
2021/11/13 09:10:21;;;;;;;2.80;2.30;;;21.60;54.60;;;;;;5025588;28;20438;-75
2021/11/13 09:12:47;;;;;;;2.60;2.20;;;21.60;54.60;;;;;;5033117;28;20470;-74
2021/11/13 09:15:17;;;;;;;2.63;2.37;;;21.60;54.50;;;;;;5036074;28;20439;-75
2021/11/13 09:17:44;;;;;;;2.67;2.40;;;21.60;54.50;;;;;;5034018;28;20415;-75
2021/11/13 09:20:10;;;;;;;2.30;2.10;;;21.60;54.50;;;;;;5036007;28;20441;-76
2021/11/13 09:22:36;;;;;;;2.40;2.10;;;21.60;54.60;;;;;;5043633;28;20556;-76
2021/11/13 09:25:08;;;;;;;3.23;2.70;;;21.60;54.50;;;;;;5037490;28;20481;-73
2021/11/13 09:27:35;;;;;;;5.70;2.60;;;21.60;54.50;;;;;;5035888;28;20481;-76
2021/11/13 09:30:06;;;;;;;4.03;3.10;;;21.60;54.50;;;;;;5059221;28;20414;-74
2021/11/13 09:32:32;;;;;;;4.80;2.43;;;21.60;54.50;;;;;;5047096;28;20394;-75
2021/11/13 09:34:58;;;;;;;4.90;2.20;;;21.60;54.50;;;;;;5058893;28;20449;-75
2021/11/13 09:37:24;;;;;;;3.93;2.73;;;21.60;54.50;;;;;;5041718;28;20409;-75
2021/11/13 09:39:55;;;;;;;4.33;2.87;;;21.60;54.40;;;;;;5058006;28;20194;-73
2021/11/13 09:42:23;;;;;;;4.23;3.00;;;21.60;54.40;;;;;;5055384;28;20458;-74
2021/11/13 09:44:50;;;;;;;7.63;3.30;;;21.60;54.40;;;;;;5021729;28;20415;-74
2021/11/13 09:47:20;;;;;;;4.73;2.40;;;21.60;54.40;;;;;;5058783;28;20420;-74
2021/11/13 09:49:46;;;;;;;3.00;2.57;;;21.60;54.40;;;;;;5039816;28;20419;-76
2021/11/13 09:52:15;;;;;;;5.47;3.40;;;21.70;54.50;;;;;;5043273;28;20474;-75
2021/11/13 09:54:44;;;;;;;4.40;2.77;;;21.70;54.40;;;;;;5060598;28;20434;-75
2021/11/13 09:57:12;;;;;;;4.60;3.07;;;21.70;54.40;;;;;;5039834;28;20447;-75
2021/11/13 09:59:42;;;;;;;3.97;2.63;;;21.70;54.40;;;;;;5020472;28;20433;-75
2021/11/13 10:02:16;;;;;;;3.60;2.47;;;21.70;54.40;;;;;;5043421;28;20442;-76
2021/11/13 10:04:46;;;;;;;2.70;2.10;;;21.70;54.40;;;;;;5044641;28;20457;-76
2021/11/13 10:07:19;;;;;;;3.00;2.20;;;21.70;54.40;;;;;;5056899;28;20419;-74
2021/11/13 10:09:49;;;;;;;3.20;2.67;;;21.70;54.40;;;;;;5042174;28;20422;-75
2021/11/13 10:12:42;;;;;;;4.27;3.23;;;21.70;54.50;;;;;;5041081;28;20399;-75
2021/11/13 10:15:37;;;;;;;3.20;2.60;;;21.70;54.40;;;;;;5002761;28;20434;-76
2021/11/13 10:18:26;;;;;;;3.63;2.90;;;21.70;54.40;;;;;;5023903;28;20403;-75
2021/11/13 10:21:10;;;;;;;3.73;2.97;;;21.70;54.50;;;;;;5041254;28;20441;-75
2021/11/13 10:23:46;;;;;;;4.60;3.33;;;21.60;54.40;;;;;;5039696;28;20475;-75
2021/11/13 10:26:29;;;;;;;3.73;2.70;;;21.70;54.50;;;;;;5023703;28;20451;-75
2021/11/13 10:28:58;;;;;;;4.67;3.50;;;21.60;54.40;;;;;;5040245;28;20395;-75
2021/11/13 10:31:27;;;;;;;3.20;2.57;;;21.70;54.50;;;;;;5039774;28;20423;-75
2021/11/13 10:34:00;;;;;;;4.53;3.40;;;21.70;54.50;;;;;;5039532;28;20906;-75
2021/11/13 10:36:48;;;;;;;5.00;3.57;;;21.70;54.50;;;;;;5020798;28;20515;-75
2021/11/13 10:39:18;;;;;;;4.57;3.00;;;21.70;54.50;;;;;;5019449;28;20780;-74
2021/11/13 10:41:46;;;;;;;6.37;3.33;;;21.70;54.60;;;;;;5022132;28;20541;-75
2021/11/13 10:47:39;;;;;;;6.70;3.40;;;21.70;54.40;;;;;;5039914;28;20383;-75
2021/11/13 10:50:27;;;;;;;6.63;3.80;;;21.70;54.40;;;;;;5038501;28;20379;-75
2021/11/13 10:53:15;;;;;;;6.13;3.80;;;21.70;54.30;;;;;;5039330;28;20455;-75
2021/11/13 10:55:59;;;;;;;8.10;5.80;;;21.70;54.20;;;;;;5038144;28;20392;-75
2021/11/13 10:58:38;;;;;;;5.37;4.67;;;21.60;53.80;;;;;;5018586;28;20454;-74
2021/11/13 11:01:09;;;;;;;4.57;3.90;;;21.60;53.50;;;;;;5018947;28;20399;-74
2021/11/13 11:03:43;;;;;;;6.23;5.43;;;21.60;53.20;;;;;;5001565;28;20530;-74
2021/11/13 11:06:11;;;;;;;5.83;5.20;;;21.60;52.90;;;;;;5037238;28;20391;-74
2021/11/13 11:08:40;;;;;;;5.97;5.10;;;21.60;52.70;;;;;;5038399;28;20407;-75
2021/11/13 11:11:35;;;;;;;6.90;5.20;;;21.50;52.30;;;;;;5020919;28;20464;-75
2021/11/13 11:14:09;;;;;;;5.43;4.80;;;21.50;52.00;;;;;;5012900;28;20411;-75
2021/11/13 11:16:40;;;;;;;5.80;4.93;;;21.50;51.80;;;;;;5021022;28;20424;-75
2021/11/13 11:19:23;;;;;;;5.20;4.70;;;21.40;51.60;;;;;;5046385;28;20427;-75
2021/11/13 11:22:08;;;;;;;6.90;4.73;;;21.40;51.50;;;;;;5057081;28;20393;-75
2021/11/13 11:24:39;;;;;;;5.07;4.40;;;21.40;51.80;;;;;;5041328;28;20398;-75
2021/11/13 11:27:38;;;;;;;5.00;3.87;;;21.40;51.90;;;;;;5057868;28;20453;-74
2021/11/13 11:30:23;;;;;;;4.60;3.50;;;21.40;52.60;;;;;;5045100;28;20445;-74
2021/11/13 11:32:58;;;;;;;4.33;3.80;;;21.30;52.20;;;;;;5023264;28;20418;-74
2021/11/13 11:35:40;;;;;;;6.87;3.83;;;21.40;52.30;;;;;;5057256;28;20471;-75
2021/11/13 11:38:12;;;;;;;5.57;4.13;;;21.30;52.30;;;;;;5038734;28;20402;-73
2021/11/13 11:40:45;;;;;;;9.07;5.10;;;21.30;52.40;;;;;;5039345;28;20417;-74
2021/11/13 11:43:15;;;;;;;10.33;4.87;;;21.30;52.50;;;;;;5037819;28;20438;-76
2021/11/13 11:45:44;;;;;;;13.73;5.50;;;21.40;52.60;;;;;;5056906;28;20395;-75
2021/11/13 11:48:14;;;;;;;14.80;5.40;;;21.40;52.70;;;;;;5056821;28;20465;-75
2021/11/13 11:50:43;;;;;;;8.90;5.47;;;21.40;52.70;;;;;;5038460;28;20415;-76
2021/11/13 11:53:12;;;;;;;10.60;5.93;;;21.40;52.80;;;;;;5057111;28;20399;-75
2021/11/13 11:55:41;;;;;;;11.63;6.00;;;21.40;52.80;;;;;;5039531;28;20426;-75
2021/11/13 11:58:13;;;;;;;18.40;6.60;;;21.40;52.90;;;;;;5038496;28;20469;-75
2021/11/13 12:00:40;;;;;;;13.20;7.00;;;21.40;52.90;;;;;;5038702;28;20429;-75
2021/11/13 12:03:07;;;;;;;14.93;7.47;;;21.40;52.90;;;;;;5056315;28;20437;-75
2021/11/13 12:05:37;;;;;;;14.13;7.10;;;21.40;52.90;;;;;;5038070;28;20423;-75
2021/11/13 12:08:18;;;;;;;13.30;7.27;;;21.40;53.00;;;;;;5023982;28;20429;-75
2021/11/13 12:10:44;;;;;;;16.80;7.30;;;21.40;53.00;;;;;;5040328;28;20434;-75
2021/11/13 12:13:13;;;;;;;12.33;6.70;;;21.40;53.10;;;;;;5057430;28;20424;-75
2021/11/13 12:15:41;;;;;;;14.00;7.47;;;21.40;53.10;;;;;;5056576;28;20414;-75
2021/11/13 12:18:20;;;;;;;15.00;7.87;;;21.40;53.10;;;;;;5040616;28;20427;-75
2021/11/13 12:21:08;;;;;;;19.17;7.97;;;21.40;53.10;;;;;;5040222;28;20855;-76
2021/11/13 12:23:35;;;;;;;13.97;6.90;;;21.40;53.20;;;;;;5040741;28;20450;-75
2021/11/13 12:26:10;;;;;;;17.23;7.40;;;21.40;53.20;;;;;;5040505;28;20433;-75
2021/11/13 12:28:44;;;;;;;14.70;8.50;;;21.50;53.30;;;;;;5055908;28;20390;-76
2021/11/13 12:31:20;;;;;;;17.73;7.07;;;21.50;53.30;;;;;;5052289;28;20417;-75
2021/11/13 12:33:49;;;;;;;18.27;7.30;;;21.50;53.30;;;;;;5032670;28;20414;-75
2021/11/13 12:36:21;;;;;;;17.37;8.13;;;21.50;53.40;;;;;;5024177;28;20479;-76
2021/11/13 12:38:56;;;;;;;15.33;7.23;;;21.50;53.40;;;;;;5032677;28;20474;-76
2021/11/13 12:41:41;;;;;;;13.20;6.60;;;21.50;53.40;;;;;;5050026;28;20406;-75
2021/11/13 12:44:14;;;;;;;16.33;7.70;;;21.50;53.40;;;;;;5031527;28;20476;-76
2021/11/13 12:46:44;;;;;;;16.90;6.67;;;21.50;53.50;;;;;;5032197;28;20418;-75
2021/11/13 12:49:18;;;;;;;15.13;7.50;;;21.50;53.50;;;;;;5044916;28;20952;-75
2021/11/13 12:51:55;;;;;;;15.40;7.47;;;21.50;53.50;;;;;;5019762;28;20414;-75
2021/11/13 12:54:32;;;;;;;13.63;6.30;;;21.50;53.50;;;;;;5049756;28;20409;-75
2021/11/13 12:57:11;;;;;;;14.13;7.53;;;21.50;53.60;;;;;;5032040;28;20497;-75
2021/11/13 12:59:53;;;;;;;15.33;6.73;;;21.50;53.50;;;;;;5049820;28;20394;-76
2021/11/13 13:02:20;;;;;;;16.97;7.03;;;21.50;53.60;;;;;;5026219;28;20931;-75
2021/11/13 13:04:47;;;;;;;20.03;10.27;;;21.50;53.60;;;;;;5042390;28;20407;-75
2021/11/13 13:07:14;;;;;;;72.37;27.20;;;21.50;53.50;;;;;;5029568;28;20479;-75
2021/11/13 13:10:03;;;;;;;87.37;37.30;;;21.50;53.50;;;;;;5030673;28;20406;-76
2021/11/13 13:12:32;;;;;;;81.60;38.50;;;21.50;53.40;;;;;;5021825;28;20509;-76
2021/11/13 13:15:01;;;;;;;134.93;51.57;;;21.50;53.30;;;;;;5033301;28;20464;-76
2021/11/13 13:17:28;;;;;;;127.93;50.60;;;21.50;53.30;;;;;;5033183;28;20450;-77
2021/11/13 13:19:54;;;;;;;170.77;63.53;;;21.50;53.20;;;;;;5048809;28;20472;-75
2021/11/13 13:22:21;;;;;;;207.73;69.20;;;21.50;53.20;;;;;;5032722;28;20517;-75
2021/11/13 13:25:13;;;;;;;239.27;78.70;;;21.50;53.20;;;;;;5050342;28;20191;-76